sensor_id;sensor_type;location;lat;lon;timestamp;temperature;humidity
38239;DHT22;24035;48.900;9.188;2022-07-17T00:00:50;15.10;99.90
38239;DHT22;24035;48.900;9.188;2022-07-17T00:03:17;15.10;99.90
38239;DHT22;24035;48.900;9.188;2022-07-17T00:05:43;15.10;99.90
38239;DHT22;24035;48.900;9.188;2022-07-17T00:08:10;15.10;99.90
38239;DHT22;24035;48.900;9.188;2022-07-17T00:10:38;15.00;99.90
38239;DHT22;24035;48.900;9.188;2022-07-17T00:13:04;15.00;99.90
38239;DHT22;24035;48.900;9.188;2022-07-17T00:15:30;14.90;99.90
38239;DHT22;24035;48.900;9.188;2022-07-17T00:17:56;14.90;1.00
38239;DHT22;24035;48.900;9.188;2022-07-17T00:20:22;14.90;1.00
38239;DHT22;24035;48.900;9.188;2022-07-17T00:22:51;14.80;1.00
38239;DHT22;24035;48.900;9.188;2022-07-17T00:25:17;14.70;1.00
38239;DHT22;24035;48.900;9.188;2022-07-17T00:27:42;14.60;1.00
38239;DHT22;24035;48.900;9.188;2022-07-17T00:30:08;14.70;1.00
38239;DHT22;24035;48.900;9.188;2022-07-17T00:32:34;14.60;1.00
38239;DHT22;24035;48.900;9.188;2022-07-17T00:35:00;14.60;1.00
38239;DHT22;24035;48.900;9.188;2022-07-17T00:37:26;14.50;1.00
38239;DHT22;24035;48.900;9.188;2022-07-17T00:39:51;14.40;1.00
38239;DHT22;24035;48.900;9.188;2022-07-17T00:42:18;14.40;1.00
38239;DHT22;24035;48.900;9.188;2022-07-17T00:44:44;14.40;1.00
38239;DHT22;24035;48.900;9.188;2022-07-17T00:47:18;14.30;1.00
38239;DHT22;24035;48.900;9.188;2022-07-17T00:49:47;14.20;1.00
38239;DHT22;24035;48.900;9.188;2022-07-17T00:52:14;14.20;1.00
38239;DHT22;24035;48.900;9.188;2022-07-17T00:54:42;14.10;1.00
38239;DHT22;24035;48.900;9.188;2022-07-17T00:57:14;14.10;1.00
38239;DHT22;24035;48.900;9.188;2022-07-17T00:59:41;14.10;1.00
38239;DHT22;24035;48.900;9.188;2022-07-17T01:02:09;14.20;1.00
38239;DHT22;24035;48.900;9.188;2022-07-17T01:04:35;14.10;1.00
38239;DHT22;24035;48.900;9.188;2022-07-17T01:07:03;14.10;1.00
38239;DHT22;24035;48.900;9.188;2022-07-17T01:09:30;14.00;1.00
38239;DHT22;24035;48.900;9.188;2022-07-17T01:11:56;13.90;1.00
38239;DHT22;24035;48.900;9.188;2022-07-17T01:14:23;13.80;1.00
38239;DHT22;24035;48.900;9.188;2022-07-17T01:16:50;13.70;1.00
38239;DHT22;24035;48.900;9.188;2022-07-17T01:19:16;13.60;46.20
38239;DHT22;24035;48.900;9.188;2022-07-17T01:21:43;13.70;89.30
38239;DHT22;24035;48.900;9.188;2022-07-17T01:24:10;13.60;97.20
38239;DHT22;24035;48.900;9.188;2022-07-17T01:26:36;13.70;99.90
38239;DHT22;24035;48.900;9.188;2022-07-17T01:29:02;13.80;99.90
38239;DHT22;24035;48.900;9.188;2022-07-17T01:31:28;13.80;90.20
38239;DHT22;24035;48.900;9.188;2022-07-17T01:33:54;13.70;99.90
38239;DHT22;24035;48.900;9.188;2022-07-17T01:36:23;13.70;99.90
38239;DHT22;24035;48.900;9.188;2022-07-17T01:38:49;13.70;99.90
38239;DHT22;24035;48.900;9.188;2022-07-17T01:41:15;13.70;99.90
38239;DHT22;24035;48.900;9.188;2022-07-17T01:43:41;14.00;1.00
38239;DHT22;24035;48.900;9.188;2022-07-17T01:46:06;14.10;1.00
38239;DHT22;24035;48.900;9.188;2022-07-17T01:48:32;14.00;1.00
38239;DHT22;24035;48.900;9.188;2022-07-17T01:50:58;14.00;1.00
38239;DHT22;24035;48.900;9.188;2022-07-17T01:53:24;13.90;1.00
38239;DHT22;24035;48.900;9.188;2022-07-17T01:55:50;14.00;14.70
38239;DHT22;24035;48.900;9.188;2022-07-17T01:58:15;14.00;1.00
38239;DHT22;24035;48.900;9.188;2022-07-17T02:00:41;13.90;1.00
38239;DHT22;24035;48.900;9.188;2022-07-17T02:03:07;13.70;52.60
38239;DHT22;24035;48.900;9.188;2022-07-17T02:05:33;13.70;85.30
38239;DHT22;24035;48.900;9.188;2022-07-17T02:07:59;13.60;84.00
38239;DHT22;24035;48.900;9.188;2022-07-17T02:10:25;13.50;99.90
38239;DHT22;24035;48.900;9.188;2022-07-17T02:12:50;13.40;99.90
38239;DHT22;24035;48.900;9.188;2022-07-17T02:15:16;13.40;99.90
38239;DHT22;24035;48.900;9.188;2022-07-17T02:17:42;13.40;99.90
38239;DHT22;24035;48.900;9.188;2022-07-17T02:20:08;13.30;99.90
38239;DHT22;24035;48.900;9.188;2022-07-17T02:22:35;13.30;99.90
38239;DHT22;24035;48.900;9.188;2022-07-17T02:25:02;13.20;99.90
38239;DHT22;24035;48.900;9.188;2022-07-17T02:27:28;13.10;99.90
38239;DHT22;24035;48.900;9.188;2022-07-17T02:29:53;13.10;1.00
38239;DHT22;24035;48.900;9.188;2022-07-17T02:32:19;13.10;1.00
38239;DHT22;24035;48.900;9.188;2022-07-17T02:34:45;13.00;1.00
38239;DHT22;24035;48.900;9.188;2022-07-17T02:37:10;13.00;1.00
38239;DHT22;24035;48.900;9.188;2022-07-17T02:39:36;12.90;1.00
38239;DHT22;24035;48.900;9.188;2022-07-17T02:42:02;12.80;1.00
38239;DHT22;24035;48.900;9.188;2022-07-17T02:44:28;12.80;1.00
38239;DHT22;24035;48.900;9.188;2022-07-17T02:46:53;12.80;1.00
38239;DHT22;24035;48.900;9.188;2022-07-17T02:49:19;12.70;1.00
38239;DHT22;24035;48.900;9.188;2022-07-17T02:51:44;12.70;1.00
38239;DHT22;24035;48.900;9.188;2022-07-17T02:54:10;12.70;1.00
38239;DHT22;24035;48.900;9.188;2022-07-17T02:56:36;12.70;27.60
38239;DHT22;24035;48.900;9.188;2022-07-17T02:59:01;12.60;99.90
38239;DHT22;24035;48.900;9.188;2022-07-17T03:01:27;12.70;99.90
38239;DHT22;24035;48.900;9.188;2022-07-17T03:03:53;12.70;99.90
38239;DHT22;24035;48.900;9.188;2022-07-17T03:06:18;12.70;99.40
38239;DHT22;24035;48.900;9.188;2022-07-17T03:08:44;12.50;99.90
38239;DHT22;24035;48.900;9.188;2022-07-17T03:11:09;12.50;99.90
38239;DHT22;24035;48.900;9.188;2022-07-17T03:13:35;12.50;99.90
38239;DHT22;24035;48.900;9.188;2022-07-17T03:16:01;12.40;99.90
38239;DHT22;24035;48.900;9.188;2022-07-17T03:18:26;12.30;99.90
38239;DHT22;24035;48.900;9.188;2022-07-17T03:20:52;12.20;99.90
38239;DHT22;24035;48.900;9.188;2022-07-17T03:23:17;12.20;99.90
38239;DHT22;24035;48.900;9.188;2022-07-17T03:25:43;12.20;1.00
38239;DHT22;24035;48.900;9.188;2022-07-17T03:28:09;12.10;1.00
38239;DHT22;24035;48.900;9.188;2022-07-17T03:30:34;12.10;1.00
38239;DHT22;24035;48.900;9.188;2022-07-17T03:33:00;12.10;1.00
38239;DHT22;24035;48.900;9.188;2022-07-17T03:35:25;12.00;1.00
38239;DHT22;24035;48.900;9.188;2022-07-17T03:37:51;12.10;37.60
38239;DHT22;24035;48.900;9.188;2022-07-17T03:40:17;12.20;1.00
38239;DHT22;24035;48.900;9.188;2022-07-17T03:42:42;12.10;1.00
38239;DHT22;24035;48.900;9.188;2022-07-17T03:45:08;12.10;1.00
38239;DHT22;24035;48.900;9.188;2022-07-17T03:47:34;12.20;1.00
38239;DHT22;24035;48.900;9.188;2022-07-17T03:50:00;12.20;1.00
38239;DHT22;24035;48.900;9.188;2022-07-17T03:52:25;12.10;1.00
38239;DHT22;24035;48.900;9.188;2022-07-17T03:54:51;12.20;1.00
38239;DHT22;24035;48.900;9.188;2022-07-17T03:57:17;12.40;1.00
38239;DHT22;24035;48.900;9.188;2022-07-17T03:59:43;12.50;1.00
38239;DHT22;24035;48.900;9.188;2022-07-17T04:02:09;12.70;29.60
38239;DHT22;24035;48.900;9.188;2022-07-17T04:04:34;13.20;1.00
38239;DHT22;24035;48.900;9.188;2022-07-17T04:07:01;13.90;99.90
38239;DHT22;24035;48.900;9.188;2022-07-17T04:09:26;14.60;1.00
38239;DHT22;24035;48.900;9.188;2022-07-17T04:11:52;15.10;99.90
38239;DHT22;24035;48.900;9.188;2022-07-17T04:14:18;15.60;99.90
38239;DHT22;24035;48.900;9.188;2022-07-17T04:16:44;16.10;19.50
38239;DHT22;24035;48.900;9.188;2022-07-17T04:19:09;16.40;1.00
38239;DHT22;24035;48.900;9.188;2022-07-17T04:21:35;16.90;1.00
38239;DHT22;24035;48.900;9.188;2022-07-17T04:24:01;17.40;1.00
38239;DHT22;24035;48.900;9.188;2022-07-17T04:26:27;17.80;1.00
38239;DHT22;24035;48.900;9.188;2022-07-17T04:28:52;18.20;1.00
38239;DHT22;24035;48.900;9.188;2022-07-17T04:31:21;18.60;1.00
38239;DHT22;24035;48.900;9.188;2022-07-17T04:33:47;18.70;99.90
38239;DHT22;24035;48.900;9.188;2022-07-17T04:36:13;18.60;99.90
38239;DHT22;24035;48.900;9.188;2022-07-17T04:38:39;18.70;99.90
38239;DHT22;24035;48.900;9.188;2022-07-17T04:41:05;18.70;99.90
38239;DHT22;24035;48.900;9.188;2022-07-17T04:43:31;18.70;99.90
38239;DHT22;24035;48.900;9.188;2022-07-17T04:45:56;18.50;99.90
38239;DHT22;24035;48.900;9.188;2022-07-17T04:48:22;18.60;99.90
38239;DHT22;24035;48.900;9.188;2022-07-17T04:50:48;18.30;99.90
38239;DHT22;24035;48.900;9.188;2022-07-17T04:53:14;18.60;99.90
38239;DHT22;24035;48.900;9.188;2022-07-17T04:55:40;19.10;99.90
38239;DHT22;24035;48.900;9.188;2022-07-17T04:58:06;19.90;99.90
38239;DHT22;24035;48.900;9.188;2022-07-17T05:00:32;20.50;99.90
38239;DHT22;24035;48.900;9.188;2022-07-17T05:02:58;20.90;99.90
38239;DHT22;24035;48.900;9.188;2022-07-17T05:05:24;21.30;99.90
38239;DHT22;24035;48.900;9.188;2022-07-17T05:07:50;21.80;97.60
38239;DHT22;24035;48.900;9.188;2022-07-17T05:10:15;21.90;91.70
38239;DHT22;24035;48.900;9.188;2022-07-17T05:12:44;22.10;77.30
38239;DHT22;24035;48.900;9.188;2022-07-17T05:15:10;22.60;62.10
38239;DHT22;24035;48.900;9.188;2022-07-17T05:17:35;22.80;49.50
38239;DHT22;24035;48.900;9.188;2022-07-17T05:20:01;23.00;47.40
38239;DHT22;24035;48.900;9.188;2022-07-17T05:22:28;23.50;30.00
38239;DHT22;24035;48.900;9.188;2022-07-17T05:24:54;23.50;17.50
38239;DHT22;24035;48.900;9.188;2022-07-17T05:27:20;23.80;3.70
38239;DHT22;24035;48.900;9.188;2022-07-17T05:29:47;24.00;1.00
38239;DHT22;24035;48.900;9.188;2022-07-17T05:32:13;24.60;1.00
38239;DHT22;24035;48.900;9.188;2022-07-17T05:34:39;25.00;1.00
38239;DHT22;24035;48.900;9.188;2022-07-17T05:37:05;25.50;1.00
38239;DHT22;24035;48.900;9.188;2022-07-17T05:39:30;25.50;1.00
38239;DHT22;24035;48.900;9.188;2022-07-17T05:41:56;25.20;1.00
38239;DHT22;24035;48.900;9.188;2022-07-17T05:44:22;24.50;1.00
38239;DHT22;24035;48.900;9.188;2022-07-17T05:46:48;23.50;1.00
38239;DHT22;24035;48.900;9.188;2022-07-17T05:49:14;22.50;1.00
38239;DHT22;24035;48.900;9.188;2022-07-17T05:51:39;21.40;1.00
38239;DHT22;24035;48.900;9.188;2022-07-17T05:54:05;21.80;1.00
38239;DHT22;24035;48.900;9.188;2022-07-17T05:56:31;22.70;1.00
38239;DHT22;24035;48.900;9.188;2022-07-17T05:58:56;23.70;1.00
38239;DHT22;24035;48.900;9.188;2022-07-17T06:01:22;24.70;1.00
38239;DHT22;24035;48.900;9.188;2022-07-17T06:03:48;25.60;1.00
38239;DHT22;24035;48.900;9.188;2022-07-17T06:06:14;26.70;1.00
38239;DHT22;24035;48.900;9.188;2022-07-17T06:08:39;27.40;1.00
38239;DHT22;24035;48.900;9.188;2022-07-17T06:11:06;27.80;1.00
38239;DHT22;24035;48.900;9.188;2022-07-17T06:13:32;28.40;1.00
38239;DHT22;24035;48.900;9.188;2022-07-17T06:15:58;28.50;1.00
38239;DHT22;24035;48.900;9.188;2022-07-17T06:18:25;28.40;1.00
38239;DHT22;24035;48.900;9.188;2022-07-17T06:20:51;28.60;1.00
38239;DHT22;24035;48.900;9.188;2022-07-17T06:23:26;28.50;1.00
38239;DHT22;24035;48.900;9.188;2022-07-17T06:25:57;28.20;1.00
38239;DHT22;24035;48.900;9.188;2022-07-17T06:28:28;28.20;1.00
38239;DHT22;24035;48.900;9.188;2022-07-17T06:30:54;27.50;1.00
38239;DHT22;24035;48.900;9.188;2022-07-17T06:33:20;27.00;1.00
38239;DHT22;24035;48.900;9.188;2022-07-17T06:35:46;27.10;1.00
38239;DHT22;24035;48.900;9.188;2022-07-17T06:38:11;27.50;1.00
38239;DHT22;24035;48.900;9.188;2022-07-17T06:40:37;26.80;1.00
38239;DHT22;24035;48.900;9.188;2022-07-17T06:43:05;26.60;1.00
38239;DHT22;24035;48.900;9.188;2022-07-17T06:45:32;25.90;1.00
38239;DHT22;24035;48.900;9.188;2022-07-17T06:47:58;24.30;1.00
38239;DHT22;24035;48.900;9.188;2022-07-17T06:50:24;23.90;1.00
38239;DHT22;24035;48.900;9.188;2022-07-17T06:52:49;24.40;1.00
38239;DHT22;24035;48.900;9.188;2022-07-17T06:55:16;25.30;1.00
38239;DHT22;24035;48.900;9.188;2022-07-17T06:57:41;25.50;1.00
38239;DHT22;24035;48.900;9.188;2022-07-17T07:00:07;25.10;1.00
38239;DHT22;24035;48.900;9.188;2022-07-17T07:02:34;24.80;1.00
38239;DHT22;24035;48.900;9.188;2022-07-17T07:05:00;23.70;1.00
38239;DHT22;24035;48.900;9.188;2022-07-17T07:07:26;22.90;1.00
38239;DHT22;24035;48.900;9.188;2022-07-17T07:09:52;23.70;1.00
38239;DHT22;24035;48.900;9.188;2022-07-17T07:12:17;25.40;1.00
38239;DHT22;24035;48.900;9.188;2022-07-17T07:14:43;24.50;1.00
38239;DHT22;24035;48.900;9.188;2022-07-17T07:17:09;24.50;1.00
38239;DHT22;24035;48.900;9.188;2022-07-17T07:19:35;25.70;1.00
38239;DHT22;24035;48.900;9.188;2022-07-17T07:22:02;26.80;1.00
38239;DHT22;24035;48.900;9.188;2022-07-17T07:24:28;28.00;1.00
38239;DHT22;24035;48.900;9.188;2022-07-17T07:26:53;28.00;1.00
38239;DHT22;24035;48.900;9.188;2022-07-17T07:29:19;28.00;1.00
38239;DHT22;24035;48.900;9.188;2022-07-17T07:31:45;28.50;1.00
38239;DHT22;24035;48.900;9.188;2022-07-17T07:34:13;29.00;1.00
38239;DHT22;24035;48.900;9.188;2022-07-17T07:36:39;28.80;1.00
38239;DHT22;24035;48.900;9.188;2022-07-17T07:39:04;28.80;1.00
38239;DHT22;24035;48.900;9.188;2022-07-17T07:41:30;29.00;1.00
38239;DHT22;24035;48.900;9.188;2022-07-17T07:43:56;29.00;1.00
38239;DHT22;24035;48.900;9.188;2022-07-17T07:46:21;29.00;1.00
38239;DHT22;24035;48.900;9.188;2022-07-17T07:48:47;28.40;1.00
38239;DHT22;24035;48.900;9.188;2022-07-17T07:51:13;28.60;1.00
38239;DHT22;24035;48.900;9.188;2022-07-17T07:53:39;28.50;1.00
38239;DHT22;24035;48.900;9.188;2022-07-17T07:56:05;28.00;1.00
38239;DHT22;24035;48.900;9.188;2022-07-17T07:58:31;27.60;1.00
38239;DHT22;24035;48.900;9.188;2022-07-17T08:00:56;26.90;1.00
38239;DHT22;24035;48.900;9.188;2022-07-17T08:03:22;27.40;1.00
38239;DHT22;24035;48.900;9.188;2022-07-17T08:05:48;27.60;1.00
38239;DHT22;24035;48.900;9.188;2022-07-17T08:08:14;27.90;1.00
38239;DHT22;24035;48.900;9.188;2022-07-17T08:10:39;27.70;1.00
38239;DHT22;24035;48.900;9.188;2022-07-17T08:13:05;28.00;1.00
38239;DHT22;24035;48.900;9.188;2022-07-17T08:15:31;27.90;1.00
38239;DHT22;24035;48.900;9.188;2022-07-17T08:17:57;28.20;1.00
38239;DHT22;24035;48.900;9.188;2022-07-17T08:20:23;28.00;1.00
38239;DHT22;24035;48.900;9.188;2022-07-17T08:22:49;28.40;1.00
38239;DHT22;24035;48.900;9.188;2022-07-17T08:25:15;29.10;1.00
38239;DHT22;24035;48.900;9.188;2022-07-17T08:27:42;30.10;1.00
38239;DHT22;24035;48.900;9.188;2022-07-17T08:30:10;30.00;1.00
38239;DHT22;24035;48.900;9.188;2022-07-17T08:32:37;30.30;1.00
38239;DHT22;24035;48.900;9.188;2022-07-17T08:35:03;30.60;1.00
38239;DHT22;24035;48.900;9.188;2022-07-17T08:37:29;30.90;1.00
38239;DHT22;24035;48.900;9.188;2022-07-17T08:39:55;31.00;1.00
38239;DHT22;24035;48.900;9.188;2022-07-17T08:42:22;30.20;1.00
38239;DHT22;24035;48.900;9.188;2022-07-17T08:44:48;29.50;1.00
38239;DHT22;24035;48.900;9.188;2022-07-17T08:47:15;29.50;1.00
38239;DHT22;24035;48.900;9.188;2022-07-17T08:49:44;29.40;1.00
38239;DHT22;24035;48.900;9.188;2022-07-17T08:52:14;30.00;1.00
38239;DHT22;24035;48.900;9.188;2022-07-17T08:54:40;29.30;1.00
38239;DHT22;24035;48.900;9.188;2022-07-17T08:57:06;29.30;1.00
38239;DHT22;24035;48.900;9.188;2022-07-17T08:59:32;29.50;1.00
38239;DHT22;24035;48.900;9.188;2022-07-17T09:01:59;29.10;1.00
38239;DHT22;24035;48.900;9.188;2022-07-17T09:04:25;28.80;1.00
38239;DHT22;24035;48.900;9.188;2022-07-17T09:07:01;29.30;1.00
38239;DHT22;24035;48.900;9.188;2022-07-17T09:09:27;29.60;1.00
38239;DHT22;24035;48.900;9.188;2022-07-17T09:11:58;29.00;1.00
38239;DHT22;24035;48.900;9.188;2022-07-17T09:14:39;28.70;1.00
38239;DHT22;24035;48.900;9.188;2022-07-17T09:17:06;29.40;1.00
38239;DHT22;24035;48.900;9.188;2022-07-17T09:19:44;29.70;1.00
38239;DHT22;24035;48.900;9.188;2022-07-17T09:22:16;29.60;1.00
38239;DHT22;24035;48.900;9.188;2022-07-17T09:27:15;30.00;1.00
38239;DHT22;24035;48.900;9.188;2022-07-17T09:30:07;30.30;1.00
38239;DHT22;24035;48.900;9.188;2022-07-17T09:32:37;29.90;1.00
38239;DHT22;24035;48.900;9.188;2022-07-17T09:35:04;29.60;1.00
38239;DHT22;24035;48.900;9.188;2022-07-17T09:37:31;29.90;1.00
38239;DHT22;24035;48.900;9.188;2022-07-17T09:39:58;29.80;1.00
38239;DHT22;24035;48.900;9.188;2022-07-17T09:42:32;29.20;1.00
38239;DHT22;24035;48.900;9.188;2022-07-17T09:45:03;28.90;1.00
38239;DHT22;24035;48.900;9.188;2022-07-17T09:47:31;28.70;1.00
38239;DHT22;24035;48.900;9.188;2022-07-17T09:49:58;28.70;1.00
38239;DHT22;24035;48.900;9.188;2022-07-17T09:52:26;28.80;1.00
38239;DHT22;24035;48.900;9.188;2022-07-17T09:54:54;29.30;1.00
38239;DHT22;24035;48.900;9.188;2022-07-17T09:57:25;29.30;1.00
38239;DHT22;24035;48.900;9.188;2022-07-17T09:59:53;28.20;1.00
38239;DHT22;24035;48.900;9.188;2022-07-17T10:02:20;27.50;1.00
38239;DHT22;24035;48.900;9.188;2022-07-17T10:04:46;27.20;1.00
38239;DHT22;24035;48.900;9.188;2022-07-17T10:07:13;27.60;1.00
38239;DHT22;24035;48.900;9.188;2022-07-17T10:09:39;28.40;1.00
38239;DHT22;24035;48.900;9.188;2022-07-17T10:12:07;28.80;1.00
38239;DHT22;24035;48.900;9.188;2022-07-17T10:14:34;28.10;1.00
38239;DHT22;24035;48.900;9.188;2022-07-17T10:17:11;28.20;1.00
38239;DHT22;24035;48.900;9.188;2022-07-17T10:19:48;28.10;1.00
38239;DHT22;24035;48.900;9.188;2022-07-17T10:22:15;27.40;1.00
38239;DHT22;24035;48.900;9.188;2022-07-17T10:24:55;27.40;1.00
38239;DHT22;24035;48.900;9.188;2022-07-17T10:32:25;28.70;1.00
38239;DHT22;24035;48.900;9.188;2022-07-17T10:34:58;28.80;1.00
38239;DHT22;24035;48.900;9.188;2022-07-17T10:40:22;29.20;1.00
38239;DHT22;24035;48.900;9.188;2022-07-17T10:43:17;29.00;1.00
38239;DHT22;24035;48.900;9.188;2022-07-17T10:45:45;28.50;1.00
38239;DHT22;24035;48.900;9.188;2022-07-17T10:48:20;28.60;1.00
38239;DHT22;24035;48.900;9.188;2022-07-17T10:50:55;28.80;1.00
38239;DHT22;24035;48.900;9.188;2022-07-17T10:53:31;29.10;1.00
38239;DHT22;24035;48.900;9.188;2022-07-17T10:55:58;29.30;1.00
38239;DHT22;24035;48.900;9.188;2022-07-17T10:58:30;29.30;1.00
38239;DHT22;24035;48.900;9.188;2022-07-17T11:01:12;29.00;1.00
38239;DHT22;24035;48.900;9.188;2022-07-17T11:03:43;29.20;1.00
38239;DHT22;24035;48.900;9.188;2022-07-17T11:06:24;29.00;1.00
38239;DHT22;24035;48.900;9.188;2022-07-17T11:08:52;29.00;1.00
38239;DHT22;24035;48.900;9.188;2022-07-17T11:11:20;28.90;1.00
38239;DHT22;24035;48.900;9.188;2022-07-17T11:13:47;28.20;1.00
38239;DHT22;24035;48.900;9.188;2022-07-17T11:16:24;27.50;1.00
38239;DHT22;24035;48.900;9.188;2022-07-17T11:18:50;27.70;1.00
38239;DHT22;24035;48.900;9.188;2022-07-17T11:21:16;28.10;1.00
38239;DHT22;24035;48.900;9.188;2022-07-17T11:23:51;28.50;1.00
38239;DHT22;24035;48.900;9.188;2022-07-17T11:26:21;28.40;1.00
38239;DHT22;24035;48.900;9.188;2022-07-17T11:28:48;27.90;1.00
38239;DHT22;24035;48.900;9.188;2022-07-17T11:31:17;28.10;1.00
38239;DHT22;24035;48.900;9.188;2022-07-17T11:34:04;28.20;1.00
38239;DHT22;24035;48.900;9.188;2022-07-17T11:36:31;28.80;1.00
38239;DHT22;24035;48.900;9.188;2022-07-17T11:39:00;29.00;1.00
38239;DHT22;24035;48.900;9.188;2022-07-17T11:41:34;28.60;1.00
38239;DHT22;24035;48.900;9.188;2022-07-17T11:44:02;28.40;1.00
38239;DHT22;24035;48.900;9.188;2022-07-17T11:46:30;28.10;1.00
38239;DHT22;24035;48.900;9.188;2022-07-17T11:48:56;28.20;1.00
38239;DHT22;24035;48.900;9.188;2022-07-17T11:51:42;28.60;1.00
38239;DHT22;24035;48.900;9.188;2022-07-17T11:54:13;28.70;1.00
38239;DHT22;24035;48.900;9.188;2022-07-17T11:56:42;28.00;1.00
38239;DHT22;24035;48.900;9.188;2022-07-17T11:59:09;27.60;1.00
38239;DHT22;24035;48.900;9.188;2022-07-17T12:01:43;27.70;1.00
38239;DHT22;24035;48.900;9.188;2022-07-17T12:04:12;28.00;1.00
38239;DHT22;24035;48.900;9.188;2022-07-17T12:06:37;27.70;1.00
38239;DHT22;24035;48.900;9.188;2022-07-17T12:09:05;27.80;1.00
38239;DHT22;24035;48.900;9.188;2022-07-17T12:11:31;28.10;1.00
38239;DHT22;24035;48.900;9.188;2022-07-17T12:14:07;28.30;1.00
38239;DHT22;24035;48.900;9.188;2022-07-17T12:16:35;28.30;1.00
38239;DHT22;24035;48.900;9.188;2022-07-17T12:19:12;28.40;1.00
38239;DHT22;24035;48.900;9.188;2022-07-17T12:22:02;27.90;1.00
38239;DHT22;24035;48.900;9.188;2022-07-17T12:24:31;27.80;1.00
38239;DHT22;24035;48.900;9.188;2022-07-17T12:27:01;27.60;1.00
38239;DHT22;24035;48.900;9.188;2022-07-17T12:29:27;27.60;1.00
38239;DHT22;24035;48.900;9.188;2022-07-17T12:34:26;28.20;1.00
38239;DHT22;24035;48.900;9.188;2022-07-17T12:36:52;28.40;1.00
38239;DHT22;24035;48.900;9.188;2022-07-17T12:39:18;28.30;1.00
38239;DHT22;24035;48.900;9.188;2022-07-17T12:41:44;28.20;1.00
38239;DHT22;24035;48.900;9.188;2022-07-17T12:44:10;28.20;1.00
38239;DHT22;24035;48.900;9.188;2022-07-17T12:46:37;28.20;1.00
38239;DHT22;24035;48.900;9.188;2022-07-17T12:49:03;28.10;1.00
38239;DHT22;24035;48.900;9.188;2022-07-17T12:51:29;28.10;1.00
38239;DHT22;24035;48.900;9.188;2022-07-17T12:53:57;28.50;1.00
38239;DHT22;24035;48.900;9.188;2022-07-17T12:56:23;28.90;1.00
38239;DHT22;24035;48.900;9.188;2022-07-17T12:58:49;29.10;1.00
38239;DHT22;24035;48.900;9.188;2022-07-17T13:01:16;29.10;1.00
38239;DHT22;24035;48.900;9.188;2022-07-17T13:03:42;28.70;1.00
38239;DHT22;24035;48.900;9.188;2022-07-17T13:06:08;28.50;1.00
38239;DHT22;24035;48.900;9.188;2022-07-17T13:08:34;28.50;1.00
38239;DHT22;24035;48.900;9.188;2022-07-17T13:11:00;28.70;1.00
38239;DHT22;24035;48.900;9.188;2022-07-17T13:13:28;28.60;1.00
38239;DHT22;24035;48.900;9.188;2022-07-17T13:15:54;28.40;1.00
38239;DHT22;24035;48.900;9.188;2022-07-17T13:18:20;28.30;1.00
38239;DHT22;24035;48.900;9.188;2022-07-17T13:20:46;28.50;1.00
38239;DHT22;24035;48.900;9.188;2022-07-17T13:23:12;28.80;1.00
38239;DHT22;24035;48.900;9.188;2022-07-17T13:25:38;29.10;1.00
38239;DHT22;24035;48.900;9.188;2022-07-17T13:28:05;29.40;1.00
38239;DHT22;24035;48.900;9.188;2022-07-17T13:30:32;29.40;1.00
38239;DHT22;24035;48.900;9.188;2022-07-17T13:32:58;29.50;1.00
38239;DHT22;24035;48.900;9.188;2022-07-17T13:35:25;29.40;1.00
38239;DHT22;24035;48.900;9.188;2022-07-17T13:37:51;29.40;1.00
38239;DHT22;24035;48.900;9.188;2022-07-17T13:40:17;29.50;1.00
38239;DHT22;24035;48.900;9.188;2022-07-17T13:42:45;29.90;1.00
38239;DHT22;24035;48.900;9.188;2022-07-17T13:45:11;30.30;1.00
38239;DHT22;24035;48.900;9.188;2022-07-17T13:47:37;30.20;1.00
38239;DHT22;24035;48.900;9.188;2022-07-17T13:50:03;29.60;1.00
38239;DHT22;24035;48.900;9.188;2022-07-17T13:52:29;29.60;1.00
38239;DHT22;24035;48.900;9.188;2022-07-17T13:54:56;30.20;1.00
38239;DHT22;24035;48.900;9.188;2022-07-17T13:57:21;30.60;1.00
38239;DHT22;24035;48.900;9.188;2022-07-17T13:59:47;31.00;1.00
38239;DHT22;24035;48.900;9.188;2022-07-17T14:02:13;31.60;1.00
38239;DHT22;24035;48.900;9.188;2022-07-17T14:04:39;31.60;1.00
38239;DHT22;24035;48.900;9.188;2022-07-17T14:07:08;32.00;1.00
38239;DHT22;24035;48.900;9.188;2022-07-17T14:09:40;31.90;1.00
38239;DHT22;24035;48.900;9.188;2022-07-17T14:12:06;31.60;1.00
38239;DHT22;24035;48.900;9.188;2022-07-17T14:14:32;31.40;1.00
38239;DHT22;24035;48.900;9.188;2022-07-17T14:16:58;31.30;1.00
38239;DHT22;24035;48.900;9.188;2022-07-17T14:19:25;31.30;1.00
38239;DHT22;24035;48.900;9.188;2022-07-17T14:21:51;30.80;1.00
38239;DHT22;24035;48.900;9.188;2022-07-17T14:24:16;30.60;1.00
38239;DHT22;24035;48.900;9.188;2022-07-17T14:26:42;31.30;1.00
38239;DHT22;24035;48.900;9.188;2022-07-17T14:29:09;32.00;1.00
38239;DHT22;24035;48.900;9.188;2022-07-17T14:31:35;32.20;1.00
38239;DHT22;24035;48.900;9.188;2022-07-17T14:34:01;32.20;1.00
38239;DHT22;24035;48.900;9.188;2022-07-17T14:36:27;33.10;1.00
38239;DHT22;24035;48.900;9.188;2022-07-17T14:38:53;33.80;1.00
38239;DHT22;24035;48.900;9.188;2022-07-17T14:41:19;34.60;1.00
38239;DHT22;24035;48.900;9.188;2022-07-17T14:43:45;34.50;1.00
38239;DHT22;24035;48.900;9.188;2022-07-17T14:46:11;33.50;1.00
38239;DHT22;24035;48.900;9.188;2022-07-17T14:48:36;33.00;1.00
38239;DHT22;24035;48.900;9.188;2022-07-17T14:51:03;32.80;1.00
38239;DHT22;24035;48.900;9.188;2022-07-17T14:53:28;33.20;1.00
38239;DHT22;24035;48.900;9.188;2022-07-17T14:55:54;34.10;1.00
38239;DHT22;24035;48.900;9.188;2022-07-17T14:58:20;34.90;1.00
38239;DHT22;24035;48.900;9.188;2022-07-17T15:00:46;35.40;1.00
38239;DHT22;24035;48.900;9.188;2022-07-17T15:03:12;36.00;1.00
38239;DHT22;24035;48.900;9.188;2022-07-17T15:05:37;36.10;1.00
38239;DHT22;24035;48.900;9.188;2022-07-17T15:08:03;34.90;1.00
38239;DHT22;24035;48.900;9.188;2022-07-17T15:10:29;34.70;1.00
38239;DHT22;24035;48.900;9.188;2022-07-17T15:12:55;34.20;1.00
38239;DHT22;24035;48.900;9.188;2022-07-17T15:15:20;33.40;1.00
38239;DHT22;24035;48.900;9.188;2022-07-17T15:17:46;33.70;1.00
38239;DHT22;24035;48.900;9.188;2022-07-17T15:20:12;34.20;1.00
38239;DHT22;24035;48.900;9.188;2022-07-17T15:22:38;34.20;1.00
38239;DHT22;24035;48.900;9.188;2022-07-17T15:25:04;34.10;1.00
38239;DHT22;24035;48.900;9.188;2022-07-17T15:27:30;34.20;1.00
38239;DHT22;24035;48.900;9.188;2022-07-17T15:29:55;33.70;1.00
38239;DHT22;24035;48.900;9.188;2022-07-17T15:32:21;34.50;1.00
38239;DHT22;24035;48.900;9.188;2022-07-17T15:34:47;34.90;1.00
38239;DHT22;24035;48.900;9.188;2022-07-17T15:37:12;36.20;1.00
38239;DHT22;24035;48.900;9.188;2022-07-17T15:39:41;35.00;1.00
38239;DHT22;24035;48.900;9.188;2022-07-17T15:42:06;33.90;1.00
38239;DHT22;24035;48.900;9.188;2022-07-17T15:44:32;33.50;1.00
38239;DHT22;24035;48.900;9.188;2022-07-17T15:46:58;34.40;1.00
38239;DHT22;24035;48.900;9.188;2022-07-17T15:49:24;35.50;1.00
38239;DHT22;24035;48.900;9.188;2022-07-17T15:51:50;36.20;1.00
38239;DHT22;24035;48.900;9.188;2022-07-17T15:54:16;36.00;1.00